createdAt,value
2023-05-14T00:03:16.039Z,12.45
2023-05-14T00:08:19.098Z,12.35
2023-05-14T00:13:22.038Z,12.27
2023-05-14T00:18:25.089Z,12.22
2023-05-14T00:23:28.581Z,13.11
2023-05-14T00:28:31.532Z,15.83
2023-05-14T00:33:35.195Z,15.97
2023-05-14T00:38:38.133Z,14.69
2023-05-14T00:43:41.189Z,13.98
2023-05-14T00:48:45.075Z,13.51
2023-05-14T00:53:48.965Z,13.13
2023-05-14T00:58:51.872Z,12.80
2023-05-14T01:03:57.976Z,12.53
2023-05-14T01:09:25.134Z,12.29
2023-05-14T01:14:59.851Z,12.08
2023-05-14T01:20:03.103Z,11.90
2023-05-14T01:25:07.197Z,11.76
2023-05-14T01:30:26.370Z,11.61
2023-05-14T01:35:31.350Z,11.47
2023-05-14T01:40:36.343Z,12.45
2023-05-14T01:45:39.332Z,15.24
2023-05-14T01:50:42.450Z,15.61
2023-05-14T01:55:45.445Z,14.24
2023-05-14T02:00:48.361Z,13.46
2023-05-14T02:05:51.372Z,12.97
2023-05-14T02:10:54.278Z,12.58
2023-05-14T02:15:57.227Z,12.25
2023-05-14T02:21:00.265Z,11.98
2023-05-14T02:26:03.254Z,11.77
2023-05-14T02:31:06.398Z,11.61
2023-05-14T02:36:09.364Z,11.46
2023-05-14T02:41:12.320Z,12.39
2023-05-14T02:46:15.362Z,15.14
2023-05-14T02:51:21.351Z,15.82
2023-05-14T02:56:24.313Z,14.43
2023-05-14T03:01:27.352Z,13.59
2023-05-14T03:06:31.542Z,13.08
2023-05-14T03:11:34.548Z,12.67
2023-05-14T03:16:37.595Z,12.39
2023-05-14T03:21:40.684Z,12.21
2023-05-14T03:26:43.616Z,12.09
2023-05-14T03:31:46.590Z,12.10
2023-05-14T03:36:50.735Z,12.48
2023-05-14T03:41:53.780Z,13.13
2023-05-14T03:46:56.725Z,13.62
2023-05-14T03:51:59.632Z,14.62
2023-05-14T03:57:05.755Z,15.48
2023-05-14T04:02:08.693Z,16.40
2023-05-14T04:07:11.716Z,16.55
2023-05-14T04:12:14.663Z,16.21
2023-05-14T04:17:17.704Z,15.78
2023-05-14T04:22:20.656Z,15.44
2023-05-14T04:27:23.796Z,15.29
2023-05-14T04:32:27.280Z,15.79
2023-05-14T04:37:31.190Z,17.26
2023-05-14T04:42:34.321Z,19.11
2023-05-14T04:47:37.302Z,20.80
2023-05-14T04:52:40.307Z,22.11
2023-05-14T04:57:43.334Z,23.04
2023-05-14T05:02:46.340Z,23.80
2023-05-14T05:07:49.252Z,23.86
2023-05-14T05:12:52.195Z,23.45
2023-05-14T05:17:55.237Z,22.65
2023-05-14T05:22:58.228Z,21.76
2023-05-14T05:28:01.249Z,20.82
2023-05-14T05:33:05.051Z,20.00
2023-05-14T05:38:08.092Z,19.41
2023-05-14T05:43:11.088Z,18.99
2023-05-14T05:48:14.131Z,18.56
2023-05-14T05:53:17.015Z,18.24
2023-05-14T05:58:19.864Z,18.14
2023-05-14T06:03:23.393Z,18.07
2023-05-14T06:08:26.389Z,17.96
2023-05-14T06:13:29.298Z,17.93
2023-05-14T06:18:32.250Z,18.00
2023-05-14T06:23:35.169Z,18.12
2023-05-14T06:28:38.090Z,18.23
2023-05-14T06:33:41.058Z,18.34
2023-05-14T06:38:43.942Z,18.44
2023-05-14T06:43:46.862Z,18.55
2023-05-14T06:48:49.851Z,18.62
2023-05-14T06:53:54.316Z,18.68
2023-05-14T06:58:57.244Z,18.71
2023-05-14T07:04:00.814Z,18.71
2023-05-14T07:09:03.990Z,18.70
2023-05-14T07:14:06.878Z,18.73
2023-05-14T07:19:09.922Z,18.80
2023-05-14T07:24:12.775Z,18.87
2023-05-14T07:29:15.858Z,18.94
2023-05-14T07:34:19.503Z,18.96
2023-05-14T07:39:22.475Z,19.00
2023-05-14T07:44:25.400Z,19.04
2023-05-14T07:49:28.358Z,19.09
2023-05-14T07:54:31.146Z,19.12
2023-05-14T07:59:34.085Z,19.15
2023-05-14T08:04:37.279Z,19.18
2023-05-14T08:09:40.671Z,19.20
2023-05-14T08:14:43.630Z,19.21
2023-05-14T08:19:46.993Z,19.26
2023-05-14T08:24:52.953Z,19.28
2023-05-14T08:29:55.850Z,19.30
2023-05-14T08:34:58.834Z,19.30
2023-05-14T08:40:05.088Z,19.33
2023-05-14T08:45:16.804Z,19.36
2023-05-14T08:50:22.572Z,19.40
2023-05-14T08:55:28.277Z,19.43
2023-05-14T09:00:31.253Z,19.47
2023-05-14T09:05:34.217Z,19.49
2023-05-14T09:10:36.997Z,19.51
2023-05-14T09:15:41.430Z,19.54
2023-05-14T09:20:47.380Z,19.61
2023-05-14T09:25:50.327Z,19.67
2023-05-14T09:30:53.256Z,19.72
2023-05-14T09:35:59.798Z,19.75
2023-05-14T09:41:03.152Z,19.77
2023-05-14T09:46:06.035Z,19.82
2023-05-14T09:51:11.667Z,19.86
2023-05-14T09:56:14.916Z,19.89
2023-05-14T10:01:20.748Z,19.97
2023-05-14T10:06:32.528Z,20.02
2023-05-14T10:11:39.070Z,20.08
2023-05-14T10:16:49.086Z,20.09
2023-05-14T10:22:05.623Z,20.10
2023-05-14T10:27:08.962Z,20.11
2023-05-14T10:32:14.966Z,20.10
2023-05-14T10:37:22.056Z,20.10
2023-05-14T10:42:43.432Z,20.15
2023-05-14T10:47:48.031Z,20.22
2023-05-14T10:52:51.691Z,20.27
2023-05-14T10:57:54.693Z,20.31
2023-05-14T11:02:57.825Z,20.32
2023-05-14T11:08:04.063Z,20.32
2023-05-14T11:13:07.105Z,20.32
2023-05-14T11:18:10.730Z,20.34
2023-05-14T11:23:16.317Z,20.37
2023-05-14T11:28:22.263Z,20.40
2023-05-14T11:33:27.892Z,20.45
2023-05-14T11:38:30.834Z,20.49
2023-05-14T11:43:36.647Z,20.56
2023-05-14T11:48:39.756Z,20.68
2023-05-14T11:53:45.948Z,20.68
2023-05-14T11:58:50.508Z,20.60
2023-05-14T12:03:53.587Z,20.45
2023-05-14T12:08:57.251Z,20.39
2023-05-14T12:14:03.099Z,20.37
2023-05-14T12:19:06.124Z,20.31
2023-05-14T12:24:18.117Z,20.29
2023-05-14T12:29:22.170Z,20.25
2023-05-14T12:34:25.090Z,20.25
2023-05-14T12:39:28.175Z,20.25
2023-05-14T12:44:31.357Z,20.23
2023-05-14T12:49:34.411Z,20.24
2023-05-14T12:54:42.775Z,20.30
2023-05-14T12:59:45.906Z,20.29
2023-05-14T13:04:48.689Z,20.24
2023-05-14T13:09:51.644Z,20.18
2023-05-14T13:14:54.414Z,20.12
2023-05-14T13:19:57.345Z,20.11
2023-05-14T13:25:00.335Z,20.10
2023-05-14T13:30:04.519Z,20.12
2023-05-14T13:35:08.009Z,20.12
2023-05-14T13:40:11.693Z,20.20
2023-05-14T13:45:14.651Z,20.33
2023-05-14T13:50:17.640Z,20.43
2023-05-14T13:55:20.743Z,20.46
2023-05-14T14:00:23.823Z,20.44
2023-05-14T14:05:28.572Z,20.44
2023-05-14T14:10:34.721Z,20.41
2023-05-14T14:15:37.766Z,20.39
2023-05-14T14:20:43.451Z,20.42
2023-05-14T14:25:46.412Z,20.44
2023-05-14T14:30:50.590Z,20.54
2023-05-14T14:35:53.560Z,20.60
2023-05-14T14:40:57.204Z,20.55
2023-05-14T14:46:00.796Z,20.58
2023-05-14T14:51:04.663Z,20.64
2023-05-14T14:56:07.675Z,20.61
2023-05-14T15:01:13.513Z,20.49
2023-05-14T15:06:16.496Z,20.37
2023-05-14T15:11:19.288Z,20.27
2023-05-14T15:16:22.283Z,20.25
2023-05-14T15:21:25.530Z,20.30
2023-05-14T15:26:28.384Z,20.38
2023-05-14T15:31:31.770Z,20.43
2023-05-14T15:36:35.632Z,20.44
2023-05-14T15:41:38.863Z,20.41
2023-05-14T15:46:41.769Z,20.39
2023-05-14T15:51:45.201Z,20.39
2023-05-14T15:56:48.895Z,20.36
2023-05-14T16:01:53.336Z,20.29
2023-05-14T16:07:03.259Z,20.21
2023-05-14T16:12:07.333Z,20.12
2023-05-14T16:17:10.289Z,20.06
2023-05-14T16:22:13.030Z,20.02
2023-05-14T16:27:18.519Z,19.98
2023-05-14T16:32:22.861Z,19.92
2023-05-14T16:37:25.790Z,19.85
2023-05-14T16:42:28.699Z,19.78
2023-05-14T16:47:31.530Z,19.72
2023-05-14T16:52:34.736Z,19.65
2023-05-14T16:57:37.514Z,19.57
2023-05-14T17:02:40.619Z,19.50
2023-05-14T17:07:43.661Z,19.41
2023-05-14T17:12:46.618Z,19.32
2023-05-14T17:17:48.509Z,19.23
2023-05-14T17:22:51.392Z,19.15
2023-05-14T17:27:54.290Z,19.05
2023-05-14T17:32:57.301Z,18.94
2023-05-14T17:38:00.709Z,18.84
2023-05-14T17:43:03.699Z,18.75
2023-05-14T17:48:08.951Z,18.66
2023-05-14T17:53:11.904Z,18.58
2023-05-14T17:58:16.417Z,18.48
2023-05-14T18:03:20.542Z,18.39
2023-05-14T18:08:23.586Z,18.32
2023-05-14T18:13:27.094Z,18.22
2023-05-14T18:18:31.051Z,18.14
2023-05-14T18:23:34.027Z,18.07
2023-05-14T18:28:37.346Z,18.00
2023-05-14T18:33:40.240Z,17.93
2023-05-14T18:38:43.281Z,17.86
2023-05-14T18:43:46.277Z,17.76
2023-05-14T18:48:49.937Z,17.68
2023-05-14T18:53:53.112Z,17.61
2023-05-14T18:58:58.161Z,17.54
2023-05-14T19:04:03.094Z,17.48
2023-05-14T19:09:07.694Z,17.43
2023-05-14T19:14:11.467Z,17.36
2023-05-14T19:19:14.545Z,17.30
2023-05-14T19:24:17.638Z,17.25
2023-05-14T19:29:20.594Z,17.22
2023-05-14T19:34:23.537Z,17.19
2023-05-14T19:39:26.527Z,17.16
2023-05-14T19:44:29.551Z,17.13
2023-05-14T19:49:32.475Z,17.11
2023-05-14T19:54:38.424Z,17.09
2023-05-14T19:59:41.523Z,17.06
2023-05-14T20:04:46.116Z,17.04
2023-05-14T20:09:49.259Z,17.01
2023-05-14T20:14:54.880Z,16.99
2023-05-14T20:19:58.218Z,16.95
2023-05-14T20:25:01.251Z,16.90
2023-05-14T20:30:05.523Z,16.86
2023-05-14T20:35:08.743Z,16.81
2023-05-14T20:40:14.777Z,16.78
2023-05-14T20:45:18.048Z,16.76
2023-05-14T20:50:21.717Z,16.74
2023-05-14T20:55:24.859Z,16.73
2023-05-14T21:00:27.800Z,16.69
2023-05-14T21:05:31.169Z,16.66
2023-05-14T21:10:34.208Z,16.62
2023-05-14T21:15:37.386Z,16.58
2023-05-14T21:20:40.545Z,16.52
2023-05-14T21:25:44.286Z,16.47
2023-05-14T21:30:47.252Z,16.42
2023-05-14T21:35:50.409Z,16.38
2023-05-14T21:40:53.331Z,16.33
2023-05-14T21:45:56.634Z,16.27
2023-05-14T21:50:59.456Z,16.24
2023-05-14T21:56:02.251Z,16.22
2023-05-14T22:01:05.161Z,16.20
2023-05-14T22:06:07.997Z,16.18
2023-05-14T22:11:10.991Z,16.16
2023-05-14T22:16:14.378Z,16.14
2023-05-14T22:21:17.413Z,16.10
2023-05-14T22:26:21.769Z,16.05
2023-05-14T22:31:24.917Z,16.02
2023-05-14T22:36:27.940Z,16.00
2023-05-14T22:41:30.918Z,15.98
2023-05-14T22:46:33.951Z,15.97
2023-05-14T22:51:36.860Z,15.94
2023-05-14T22:56:39.872Z,15.91
2023-05-14T23:01:42.883Z,15.88
2023-05-14T23:06:45.960Z,15.85
2023-05-14T23:11:48.930Z,15.82
2023-05-14T23:16:51.899Z,15.78
2023-05-14T23:21:54.815Z,15.74
2023-05-14T23:26:57.789Z,15.68
2023-05-14T23:32:00.807Z,15.64
2023-05-14T23:37:03.858Z,15.62
2023-05-14T23:42:06.964Z,15.57
2023-05-14T23:47:10.322Z,15.56
2023-05-14T23:52:13.244Z,15.53
2023-05-14T23:57:16.221Z,15.50
